sensor_id;sensor_type;location;lat;lon;timestamp;temperature;humidity
21246;DHT22;10781;50.928;4.440;2023-04-15T00:00:12;13.50;99.90
21246;DHT22;10781;50.928;4.440;2023-04-15T00:02:38;13.10;99.90
21246;DHT22;10781;50.928;4.440;2023-04-15T00:05:04;13.30;99.90
21246;DHT22;10781;50.928;4.440;2023-04-15T00:07:31;13.40;99.90
21246;DHT22;10781;50.928;4.440;2023-04-15T00:09:57;13.50;99.90
21246;DHT22;10781;50.928;4.440;2023-04-15T00:12:24;13.50;99.90
21246;DHT22;10781;50.928;4.440;2023-04-15T00:14:50;13.80;99.90
21246;DHT22;10781;50.928;4.440;2023-04-15T00:17:16;13.80;99.90
21246;DHT22;10781;50.928;4.440;2023-04-15T00:19:42;13.80;99.90
21246;DHT22;10781;50.928;4.440;2023-04-15T00:22:11;13.60;99.90
21246;DHT22;10781;50.928;4.440;2023-04-15T00:24:38;13.50;99.90
21246;DHT22;10781;50.928;4.440;2023-04-15T00:27:04;12.90;99.90
21246;DHT22;10781;50.928;4.440;2023-04-15T00:29:30;12.70;99.90
21246;DHT22;10781;50.928;4.440;2023-04-15T00:31:56;12.80;99.90
21246;DHT22;10781;50.928;4.440;2023-04-15T00:34:22;13.10;99.90
21246;DHT22;10781;50.928;4.440;2023-04-15T00:36:49;13.20;99.90
21246;DHT22;10781;50.928;4.440;2023-04-15T00:39:14;13.30;99.90
21246;DHT22;10781;50.928;4.440;2023-04-15T00:41:43;13.40;99.90
21246;DHT22;10781;50.928;4.440;2023-04-15T00:44:10;13.40;99.90
21246;DHT22;10781;50.928;4.440;2023-04-15T00:46:36;13.20;99.90
21246;DHT22;10781;50.928;4.440;2023-04-15T00:49:06;13.30;99.90
21246;DHT22;10781;50.928;4.440;2023-04-15T00:51:33;13.10;99.90
21246;DHT22;10781;50.928;4.440;2023-04-15T00:54:01;13.00;99.90
21246;DHT22;10781;50.928;4.440;2023-04-15T00:56:28;12.90;99.90
21246;DHT22;10781;50.928;4.440;2023-04-15T00:58:54;12.90;99.90
21246;DHT22;10781;50.928;4.440;2023-04-15T01:01:21;12.80;99.90
21246;DHT22;10781;50.928;4.440;2023-04-15T01:03:49;12.70;99.90
21246;DHT22;10781;50.928;4.440;2023-04-15T01:06:16;12.60;99.90
21246;DHT22;10781;50.928;4.440;2023-04-15T01:08:42;12.50;99.90
21246;DHT22;10781;50.928;4.440;2023-04-15T01:11:08;12.50;99.90
21246;DHT22;10781;50.928;4.440;2023-04-15T01:13:35;12.60;99.90
21246;DHT22;10781;50.928;4.440;2023-04-15T01:16:01;12.60;99.90
21246;DHT22;10781;50.928;4.440;2023-04-15T01:18:28;12.60;99.90
21246;DHT22;10781;50.928;4.440;2023-04-15T01:20:54;12.50;99.90
21246;DHT22;10781;50.928;4.440;2023-04-15T01:23:20;12.50;99.90
21246;DHT22;10781;50.928;4.440;2023-04-15T01:25:48;12.40;99.90
21246;DHT22;10781;50.928;4.440;2023-04-15T01:28:14;12.30;99.90
21246;DHT22;10781;50.928;4.440;2023-04-15T01:30:40;12.30;99.90
21246;DHT22;10781;50.928;4.440;2023-04-15T01:33:06;12.40;99.90
21246;DHT22;10781;50.928;4.440;2023-04-15T01:35:32;12.40;99.90
21246;DHT22;10781;50.928;4.440;2023-04-15T01:38:08;12.40;99.90
21246;DHT22;10781;50.928;4.440;2023-04-15T01:40:34;12.40;99.90
21246;DHT22;10781;50.928;4.440;2023-04-15T01:43:01;12.40;99.90
21246;DHT22;10781;50.928;4.440;2023-04-15T01:45:27;12.40;99.90
21246;DHT22;10781;50.928;4.440;2023-04-15T01:47:53;12.30;99.90
21246;DHT22;10781;50.928;4.440;2023-04-15T01:50:19;12.30;99.90
21246;DHT22;10781;50.928;4.440;2023-04-15T01:52:45;12.30;99.90
21246;DHT22;10781;50.928;4.440;2023-04-15T01:55:14;12.30;99.90
21246;DHT22;10781;50.928;4.440;2023-04-15T01:57:39;12.30;99.90
21246;DHT22;10781;50.928;4.440;2023-04-15T02:00:05;12.40;99.90
21246;DHT22;10781;50.928;4.440;2023-04-15T02:02:32;12.20;99.90
21246;DHT22;10781;50.928;4.440;2023-04-15T02:04:58;12.30;99.90
21246;DHT22;10781;50.928;4.440;2023-04-15T02:07:24;12.40;99.90
21246;DHT22;10781;50.928;4.440;2023-04-15T02:09:50;12.40;99.90
21246;DHT22;10781;50.928;4.440;2023-04-15T02:12:15;12.40;99.90
21246;DHT22;10781;50.928;4.440;2023-04-15T02:14:41;12.30;99.90
21246;DHT22;10781;50.928;4.440;2023-04-15T02:17:07;12.20;99.90
21246;DHT22;10781;50.928;4.440;2023-04-15T02:19:36;12.20;99.90
21246;DHT22;10781;50.928;4.440;2023-04-15T02:22:01;12.30;99.90
21246;DHT22;10781;50.928;4.440;2023-04-15T02:24:29;12.30;99.90
21246;DHT22;10781;50.928;4.440;2023-04-15T02:26:55;12.20;99.90
21246;DHT22;10781;50.928;4.440;2023-04-15T02:29:21;12.20;99.90
21246;DHT22;10781;50.928;4.440;2023-04-15T02:31:48;12.30;99.90
21246;DHT22;10781;50.928;4.440;2023-04-15T02:34:13;12.30;99.90
21246;DHT22;10781;50.928;4.440;2023-04-15T02:36:39;12.30;99.90
21246;DHT22;10781;50.928;4.440;2023-04-15T02:39:05;12.30;99.90
21246;DHT22;10781;50.928;4.440;2023-04-15T02:41:31;12.30;99.90
21246;DHT22;10781;50.928;4.440;2023-04-15T02:43:57;12.10;99.90
21246;DHT22;10781;50.928;4.440;2023-04-15T02:46:22;12.10;99.90
21246;DHT22;10781;50.928;4.440;2023-04-15T02:48:49;11.90;99.90
21246;DHT22;10781;50.928;4.440;2023-04-15T02:51:16;11.90;99.90
21246;DHT22;10781;50.928;4.440;2023-04-15T02:53:47;11.80;99.90
21246;DHT22;10781;50.928;4.440;2023-04-15T02:56:13;11.90;99.90
21246;DHT22;10781;50.928;4.440;2023-04-15T02:58:42;11.90;99.90
21246;DHT22;10781;50.928;4.440;2023-04-15T03:01:08;11.80;99.90
21246;DHT22;10781;50.928;4.440;2023-04-15T03:03:34;11.40;99.90
21246;DHT22;10781;50.928;4.440;2023-04-15T03:05:59;11.20;99.90
21246;DHT22;10781;50.928;4.440;2023-04-15T03:08:25;11.40;99.90
21246;DHT22;10781;50.928;4.440;2023-04-15T03:10:51;11.40;99.90
21246;DHT22;10781;50.928;4.440;2023-04-15T03:13:18;11.20;99.90
21246;DHT22;10781;50.928;4.440;2023-04-15T03:15:46;11.30;99.90
21246;DHT22;10781;50.928;4.440;2023-04-15T03:18:11;11.40;99.90
21246;DHT22;10781;50.928;4.440;2023-04-15T03:20:37;11.70;99.90
21246;DHT22;10781;50.928;4.440;2023-04-15T03:23:02;11.90;99.90
21246;DHT22;10781;50.928;4.440;2023-04-15T03:25:28;11.50;99.90
21246;DHT22;10781;50.928;4.440;2023-04-15T03:27:54;11.50;99.90
21246;DHT22;10781;50.928;4.440;2023-04-15T03:30:19;11.60;99.90
21246;DHT22;10781;50.928;4.440;2023-04-15T03:32:45;11.80;99.90
21246;DHT22;10781;50.928;4.440;2023-04-15T03:35:11;11.70;99.90
21246;DHT22;10781;50.928;4.440;2023-04-15T03:37:37;11.30;99.90
21246;DHT22;10781;50.928;4.440;2023-04-15T03:40:03;11.60;99.90
21246;DHT22;10781;50.928;4.440;2023-04-15T03:42:28;11.80;99.90
21246;DHT22;10781;50.928;4.440;2023-04-15T03:44:54;11.90;99.90
21246;DHT22;10781;50.928;4.440;2023-04-15T03:47:20;12.00;99.90
21246;DHT22;10781;50.928;4.440;2023-04-15T03:49:45;12.10;99.90
21246;DHT22;10781;50.928;4.440;2023-04-15T03:52:11;12.20;99.90
21246;DHT22;10781;50.928;4.440;2023-04-15T03:54:37;12.20;99.90
21246;DHT22;10781;50.928;4.440;2023-04-15T03:57:02;12.00;99.90
21246;DHT22;10781;50.928;4.440;2023-04-15T03:59:28;12.00;99.90
21246;DHT22;10781;50.928;4.440;2023-04-15T04:01:54;11.80;99.90
21246;DHT22;10781;50.928;4.440;2023-04-15T04:04:19;11.70;99.90
21246;DHT22;10781;50.928;4.440;2023-04-15T04:06:45;11.60;99.90
21246;DHT22;10781;50.928;4.440;2023-04-15T04:09:11;11.70;99.90
21246;DHT22;10781;50.928;4.440;2023-04-15T04:11:36;11.60;99.90
21246;DHT22;10781;50.928;4.440;2023-04-15T04:14:02;11.70;99.90
21246;DHT22;10781;50.928;4.440;2023-04-15T04:16:27;11.80;99.90
21246;DHT22;10781;50.928;4.440;2023-04-15T04:18:53;11.70;99.90
21246;DHT22;10781;50.928;4.440;2023-04-15T04:21:19;11.30;99.90
21246;DHT22;10781;50.928;4.440;2023-04-15T04:23:45;11.30;99.90
21246;DHT22;10781;50.928;4.440;2023-04-15T04:26:11;11.20;99.90
21246;DHT22;10781;50.928;4.440;2023-04-15T04:28:37;11.20;99.90
21246;DHT22;10781;50.928;4.440;2023-04-15T04:31:05;10.80;99.90
21246;DHT22;10781;50.928;4.440;2023-04-15T04:33:32;11.00;99.90
21246;DHT22;10781;50.928;4.440;2023-04-15T04:35:57;11.30;99.90
21246;DHT22;10781;50.928;4.440;2023-04-15T04:38:23;11.60;99.90
21246;DHT22;10781;50.928;4.440;2023-04-15T04:40:49;11.70;99.90
21246;DHT22;10781;50.928;4.440;2023-04-15T04:43:15;11.60;99.90
21246;DHT22;10781;50.928;4.440;2023-04-15T04:45:41;11.70;99.90
21246;DHT22;10781;50.928;4.440;2023-04-15T04:48:07;11.70;99.90
21246;DHT22;10781;50.928;4.440;2023-04-15T04:50:34;11.70;99.90
21246;DHT22;10781;50.928;4.440;2023-04-15T04:53:00;11.70;99.90
21246;DHT22;10781;50.928;4.440;2023-04-15T04:55:26;11.50;99.90
21246;DHT22;10781;50.928;4.440;2023-04-15T04:57:52;11.50;99.90
21246;DHT22;10781;50.928;4.440;2023-04-15T05:00:18;11.40;99.90
21246;DHT22;10781;50.928;4.440;2023-04-15T05:02:44;11.30;99.90
21246;DHT22;10781;50.928;4.440;2023-04-15T05:05:09;11.00;99.90
21246;DHT22;10781;50.928;4.440;2023-04-15T05:07:36;10.80;99.90
21246;DHT22;10781;50.928;4.440;2023-04-15T05:10:02;11.10;99.90
21246;DHT22;10781;50.928;4.440;2023-04-15T05:12:28;11.20;99.90
21246;DHT22;10781;50.928;4.440;2023-04-15T05:14:54;11.20;99.90
21246;DHT22;10781;50.928;4.440;2023-04-15T05:17:19;11.10;99.90
21246;DHT22;10781;50.928;4.440;2023-04-15T05:19:45;11.00;99.90
21246;DHT22;10781;50.928;4.440;2023-04-15T05:22:10;10.50;99.90
21246;DHT22;10781;50.928;4.440;2023-04-15T05:24:36;10.50;99.90
21246;DHT22;10781;50.928;4.440;2023-04-15T05:27:02;10.80;99.90
21246;DHT22;10781;50.928;4.440;2023-04-15T05:29:28;10.80;99.90
21246;DHT22;10781;50.928;4.440;2023-04-15T05:31:53;10.80;99.90
21246;DHT22;10781;50.928;4.440;2023-04-15T05:34:19;10.80;99.90
21246;DHT22;10781;50.928;4.440;2023-04-15T05:36:44;10.60;99.90
21246;DHT22;10781;50.928;4.440;2023-04-15T05:39:10;10.40;99.90
21246;DHT22;10781;50.928;4.440;2023-04-15T05:41:36;10.40;99.90
21246;DHT22;10781;50.928;4.440;2023-04-15T05:44:02;10.50;99.90
21246;DHT22;10781;50.928;4.440;2023-04-15T05:46:28;10.10;99.90
21246;DHT22;10781;50.928;4.440;2023-04-15T05:48:53;10.00;99.90
21246;DHT22;10781;50.928;4.440;2023-04-15T05:51:19;10.30;99.90
21246;DHT22;10781;50.928;4.440;2023-04-15T05:53:45;10.50;99.90
21246;DHT22;10781;50.928;4.440;2023-04-15T05:56:11;10.20;99.90
21246;DHT22;10781;50.928;4.440;2023-04-15T05:58:36;10.30;99.90
21246;DHT22;10781;50.928;4.440;2023-04-15T06:01:02;10.70;99.90
21246;DHT22;10781;50.928;4.440;2023-04-15T06:03:28;11.00;99.90
21246;DHT22;10781;50.928;4.440;2023-04-15T06:05:54;11.00;99.90
21246;DHT22;10781;50.928;4.440;2023-04-15T06:08:20;10.90;99.90
21246;DHT22;10781;50.928;4.440;2023-04-15T06:10:46;11.00;99.90
21246;DHT22;10781;50.928;4.440;2023-04-15T06:13:12;11.30;99.90
21246;DHT22;10781;50.928;4.440;2023-04-15T06:15:38;11.00;99.90
21246;DHT22;10781;50.928;4.440;2023-04-15T06:18:03;10.80;99.90
21246;DHT22;10781;50.928;4.440;2023-04-15T06:20:29;11.20;99.90
21246;DHT22;10781;50.928;4.440;2023-04-15T06:22:55;11.50;99.90
21246;DHT22;10781;50.928;4.440;2023-04-15T06:25:21;11.10;99.90
21246;DHT22;10781;50.928;4.440;2023-04-15T06:27:47;11.00;99.90
21246;DHT22;10781;50.928;4.440;2023-04-15T06:30:13;10.90;99.90
21246;DHT22;10781;50.928;4.440;2023-04-15T06:32:39;11.10;99.90
21246;DHT22;10781;50.928;4.440;2023-04-15T06:35:04;11.50;99.90
21246;DHT22;10781;50.928;4.440;2023-04-15T06:37:30;11.80;99.90
21246;DHT22;10781;50.928;4.440;2023-04-15T06:39:57;12.00;99.90
21246;DHT22;10781;50.928;4.440;2023-04-15T06:42:22;11.70;99.90
21246;DHT22;10781;50.928;4.440;2023-04-15T06:44:48;11.80;99.90
21246;DHT22;10781;50.928;4.440;2023-04-15T06:47:14;12.10;99.90
21246;DHT22;10781;50.928;4.440;2023-04-15T06:49:40;12.30;99.90
21246;DHT22;10781;50.928;4.440;2023-04-15T06:52:07;11.80;99.90
21246;DHT22;10781;50.928;4.440;2023-04-15T06:54:33;11.60;99.90
21246;DHT22;10781;50.928;4.440;2023-04-15T06:56:58;11.80;99.90
21246;DHT22;10781;50.928;4.440;2023-04-15T06:59:24;11.90;99.90
21246;DHT22;10781;50.928;4.440;2023-04-15T07:01:50;12.10;99.90
21246;DHT22;10781;50.928;4.440;2023-04-15T07:04:16;12.40;99.90
21246;DHT22;10781;50.928;4.440;2023-04-15T07:06:42;12.50;99.90
21246;DHT22;10781;50.928;4.440;2023-04-15T07:09:07;12.50;99.90
21246;DHT22;10781;50.928;4.440;2023-04-15T07:11:33;12.90;99.90
21246;DHT22;10781;50.928;4.440;2023-04-15T07:13:59;13.00;99.90
21246;DHT22;10781;50.928;4.440;2023-04-15T07:16:25;12.70;99.90
21246;DHT22;10781;50.928;4.440;2023-04-15T07:18:50;12.70;99.90
21246;DHT22;10781;50.928;4.440;2023-04-15T07:21:16;12.90;99.90
21246;DHT22;10781;50.928;4.440;2023-04-15T07:23:42;13.10;99.90
21246;DHT22;10781;50.928;4.440;2023-04-15T07:26:08;13.20;99.90
21246;DHT22;10781;50.928;4.440;2023-04-15T07:28:33;12.80;99.90
21246;DHT22;10781;50.928;4.440;2023-04-15T07:30:59;12.80;99.90
21246;DHT22;10781;50.928;4.440;2023-04-15T07:33:25;13.00;99.90
21246;DHT22;10781;50.928;4.440;2023-04-15T07:35:51;12.80;99.90
21246;DHT22;10781;50.928;4.440;2023-04-15T07:38:16;13.30;99.90
21246;DHT22;10781;50.928;4.440;2023-04-15T07:40:42;14.20;99.90
21246;DHT22;10781;50.928;4.440;2023-04-15T07:43:08;14.30;99.90
21246;DHT22;10781;50.928;4.440;2023-04-15T07:45:34;14.60;99.90
21246;DHT22;10781;50.928;4.440;2023-04-15T07:48:00;14.60;99.90
21246;DHT22;10781;50.928;4.440;2023-04-15T07:50:27;14.90;99.90
21246;DHT22;10781;50.928;4.440;2023-04-15T07:52:52;15.00;99.90
21246;DHT22;10781;50.928;4.440;2023-04-15T07:55:18;15.30;99.90
21246;DHT22;10781;50.928;4.440;2023-04-15T07:57:46;15.30;99.90
21246;DHT22;10781;50.928;4.440;2023-04-15T08:00:12;16.20;99.90
21246;DHT22;10781;50.928;4.440;2023-04-15T08:02:38;17.70;99.90
21246;DHT22;10781;50.928;4.440;2023-04-15T08:05:05;19.00;99.90
21246;DHT22;10781;50.928;4.440;2023-04-15T08:07:32;20.70;99.90
21246;DHT22;10781;50.928;4.440;2023-04-15T08:09:59;21.30;99.90
21246;DHT22;10781;50.928;4.440;2023-04-15T08:12:25;21.50;99.90
21246;DHT22;10781;50.928;4.440;2023-04-15T08:14:50;21.80;99.90
21246;DHT22;10781;50.928;4.440;2023-04-15T08:17:16;21.60;99.90
21246;DHT22;10781;50.928;4.440;2023-04-15T08:19:42;20.40;99.90
21246;DHT22;10781;50.928;4.440;2023-04-15T08:22:08;20.50;99.90
21246;DHT22;10781;50.928;4.440;2023-04-15T08:24:34;20.30;99.90
21246;DHT22;10781;50.928;4.440;2023-04-15T08:27:00;19.20;99.90
21246;DHT22;10781;50.928;4.440;2023-04-15T08:29:28;17.90;99.90
21246;DHT22;10781;50.928;4.440;2023-04-15T08:31:54;16.90;99.90
21246;DHT22;10781;50.928;4.440;2023-04-15T08:34:20;16.80;99.90
21246;DHT22;10781;50.928;4.440;2023-04-15T08:36:45;17.10;99.90
21246;DHT22;10781;50.928;4.440;2023-04-15T08:39:11;17.40;99.90
21246;DHT22;10781;50.928;4.440;2023-04-15T08:41:45;18.10;99.90
21246;DHT22;10781;50.928;4.440;2023-04-15T08:44:13;18.70;99.90
21246;DHT22;10781;50.928;4.440;2023-04-15T08:46:40;19.90;99.90
21246;DHT22;10781;50.928;4.440;2023-04-15T08:49:11;19.80;99.90
21246;DHT22;10781;50.928;4.440;2023-04-15T08:51:41;20.70;99.90
21246;DHT22;10781;50.928;4.440;2023-04-15T08:54:10;20.60;99.90
21246;DHT22;10781;50.928;4.440;2023-04-15T08:56:37;22.90;99.90
21246;DHT22;10781;50.928;4.440;2023-04-15T08:59:03;25.00;99.30
21246;DHT22;10781;50.928;4.440;2023-04-15T09:01:31;27.10;93.90
21246;DHT22;10781;50.928;4.440;2023-04-15T09:03:58;26.90;91.30
21246;DHT22;10781;50.928;4.440;2023-04-15T09:06:24;27.20;83.00
21246;DHT22;10781;50.928;4.440;2023-04-15T09:08:50;26.20;81.10
21246;DHT22;10781;50.928;4.440;2023-04-15T09:11:17;25.00;77.40
21246;DHT22;10781;50.928;4.440;2023-04-15T09:13:43;24.70;80.70
21246;DHT22;10781;50.928;4.440;2023-04-15T09:16:08;25.20;77.60
21246;DHT22;10781;50.928;4.440;2023-04-15T09:18:36;25.40;72.20
21246;DHT22;10781;50.928;4.440;2023-04-15T09:21:10;25.50;70.30
21246;DHT22;10781;50.928;4.440;2023-04-15T09:23:38;25.60;71.60
21246;DHT22;10781;50.928;4.440;2023-04-15T09:26:05;25.80;70.70
21246;DHT22;10781;50.928;4.440;2023-04-15T09:28:31;26.00;68.60
21246;DHT22;10781;50.928;4.440;2023-04-15T09:30:58;25.10;72.70
21246;DHT22;10781;50.928;4.440;2023-04-15T09:33:24;24.80;71.90
21246;DHT22;10781;50.928;4.440;2023-04-15T09:36:11;23.70;75.10
21246;DHT22;10781;50.928;4.440;2023-04-15T09:38:54;23.70;75.50
21246;DHT22;10781;50.928;4.440;2023-04-15T09:41:20;23.20;77.80
21246;DHT22;10781;50.928;4.440;2023-04-15T09:43:46;23.00;74.80
21246;DHT22;10781;50.928;4.440;2023-04-15T09:46:11;22.70;73.90
21246;DHT22;10781;50.928;4.440;2023-04-15T09:48:37;22.80;76.00
21246;DHT22;10781;50.928;4.440;2023-04-15T09:51:03;23.10;76.40
21246;DHT22;10781;50.928;4.440;2023-04-15T09:53:28;24.10;74.10
21246;DHT22;10781;50.928;4.440;2023-04-15T09:55:58;24.00;75.10
21246;DHT22;10781;50.928;4.440;2023-04-15T09:58:33;24.80;74.60
21246;DHT22;10781;50.928;4.440;2023-04-15T10:01:01;24.00;75.60
21246;DHT22;10781;50.928;4.440;2023-04-15T10:03:29;24.10;74.80
21246;DHT22;10781;50.928;4.440;2023-04-15T10:05:58;23.70;72.20
21246;DHT22;10781;50.928;4.440;2023-04-15T10:08:28;23.70;74.70
21246;DHT22;10781;50.928;4.440;2023-04-15T10:10:54;23.60;72.40
21246;DHT22;10781;50.928;4.440;2023-04-15T10:13:22;24.70;72.40
21246;DHT22;10781;50.928;4.440;2023-04-15T10:16:00;24.60;70.10
21246;DHT22;10781;50.928;4.440;2023-04-15T10:18:33;26.00;68.10
21246;DHT22;10781;50.928;4.440;2023-04-15T10:21:00;25.40;68.70
21246;DHT22;10781;50.928;4.440;2023-04-15T10:23:26;26.20;66.30
21246;DHT22;10781;50.928;4.440;2023-04-15T10:25:52;25.70;67.80
21246;DHT22;10781;50.928;4.440;2023-04-15T10:28:19;25.50;69.40
21246;DHT22;10781;50.928;4.440;2023-04-15T10:30:47;25.40;65.50
21246;DHT22;10781;50.928;4.440;2023-04-15T10:33:16;26.50;65.10
21246;DHT22;10781;50.928;4.440;2023-04-15T10:35:44;27.10;63.40
21246;DHT22;10781;50.928;4.440;2023-04-15T10:38:41;25.20;59.20
21246;DHT22;10781;50.928;4.440;2023-04-15T10:43:55;24.90;58.10
21246;DHT22;10781;50.928;4.440;2023-04-15T10:46:39;24.70;57.90
21246;DHT22;10781;50.928;4.440;2023-04-15T10:49:16;23.90;58.50
21246;DHT22;10781;50.928;4.440;2023-04-15T10:51:44;24.50;58.10
21246;DHT22;10781;50.928;4.440;2023-04-15T10:54:15;25.40;58.20
21246;DHT22;10781;50.928;4.440;2023-04-15T10:56:43;26.20;57.10
21246;DHT22;10781;50.928;4.440;2023-04-15T10:59:09;25.50;56.80
21246;DHT22;10781;50.928;4.440;2023-04-15T11:02:08;25.20;57.50
21246;DHT22;10781;50.928;4.440;2023-04-15T11:04:51;25.60;58.80
21246;DHT22;10781;50.928;4.440;2023-04-15T11:12:49;27.00;56.00
21246;DHT22;10781;50.928;4.440;2023-04-15T11:15:41;25.60;53.00
21246;DHT22;10781;50.928;4.440;2023-04-15T11:20:36;26.00;54.40
21246;DHT22;10781;50.928;4.440;2023-04-15T11:23:02;25.10;52.90
21246;DHT22;10781;50.928;4.440;2023-04-15T11:25:30;25.60;53.30
21246;DHT22;10781;50.928;4.440;2023-04-15T11:27:59;26.40;50.80
21246;DHT22;10781;50.928;4.440;2023-04-15T11:30:30;25.80;51.10
21246;DHT22;10781;50.928;4.440;2023-04-15T11:33:07;27.20;46.50
21246;DHT22;10781;50.928;4.440;2023-04-15T11:35:33;25.30;47.70
21246;DHT22;10781;50.928;4.440;2023-04-15T11:38:03;26.00;49.10
21246;DHT22;10781;50.928;4.440;2023-04-15T11:40:30;26.40;48.60
21246;DHT22;10781;50.928;4.440;2023-04-15T11:43:16;26.50;50.60
21246;DHT22;10781;50.928;4.440;2023-04-15T11:45:59;26.30;49.20
21246;DHT22;10781;50.928;4.440;2023-04-15T11:48:30;25.20;51.80
21246;DHT22;10781;50.928;4.440;2023-04-15T11:50:58;27.20;52.00
21246;DHT22;10781;50.928;4.440;2023-04-15T11:53:38;26.90;50.60
21246;DHT22;10781;50.928;4.440;2023-04-15T11:56:05;26.80;51.80
21246;DHT22;10781;50.928;4.440;2023-04-15T11:58:34;26.30;51.70
21246;DHT22;10781;50.928;4.440;2023-04-15T12:01:01;25.70;47.60
21246;DHT22;10781;50.928;4.440;2023-04-15T12:03:39;25.80;48.70
21246;DHT22;10781;50.928;4.440;2023-04-15T12:09:12;26.00;48.60
21246;DHT22;10781;50.928;4.440;2023-04-15T12:11:49;26.10;48.80
21246;DHT22;10781;50.928;4.440;2023-04-15T12:14:34;25.30;48.40
21246;DHT22;10781;50.928;4.440;2023-04-15T12:17:02;26.00;48.90
21246;DHT22;10781;50.928;4.440;2023-04-15T12:19:30;25.80;47.70
21246;DHT22;10781;50.928;4.440;2023-04-15T12:22:14;26.40;48.60
21246;DHT22;10781;50.928;4.440;2023-04-15T12:24:42;25.60;47.80
21246;DHT22;10781;50.928;4.440;2023-04-15T12:27:15;26.30;47.10
21246;DHT22;10781;50.928;4.440;2023-04-15T12:29:42;26.60;44.40
21246;DHT22;10781;50.928;4.440;2023-04-15T12:32:09;27.50;44.50
21246;DHT22;10781;50.928;4.440;2023-04-15T12:34:40;28.50;43.90
21246;DHT22;10781;50.928;4.440;2023-04-15T12:37:08;28.10;43.20
21246;DHT22;10781;50.928;4.440;2023-04-15T12:39:44;26.40;43.70
21246;DHT22;10781;50.928;4.440;2023-04-15T12:42:10;25.70;44.20
21246;DHT22;10781;50.928;4.440;2023-04-15T12:44:37;25.60;45.50
21246;DHT22;10781;50.928;4.440;2023-04-15T12:47:03;24.90;47.60
21246;DHT22;10781;50.928;4.440;2023-04-15T12:49:30;24.90;49.90
21246;DHT22;10781;50.928;4.440;2023-04-15T12:51:57;25.30;46.80
21246;DHT22;10781;50.928;4.440;2023-04-15T12:54:24;25.30;49.30
21246;DHT22;10781;50.928;4.440;2023-04-15T12:56:51;25.90;47.50
21246;DHT22;10781;50.928;4.440;2023-04-15T12:59:17;25.70;46.40
21246;DHT22;10781;50.928;4.440;2023-04-15T13:01:44;24.70;45.50
21246;DHT22;10781;50.928;4.440;2023-04-15T13:04:10;24.40;47.30
21246;DHT22;10781;50.928;4.440;2023-04-15T13:06:36;23.90;47.20
21246;DHT22;10781;50.928;4.440;2023-04-15T13:09:02;23.60;48.40
21246;DHT22;10781;50.928;4.440;2023-04-15T13:11:29;24.10;48.40
21246;DHT22;10781;50.928;4.440;2023-04-15T13:14:05;26.10;50.40
21246;DHT22;10781;50.928;4.440;2023-04-15T13:16:32;27.50;48.10
21246;DHT22;10781;50.928;4.440;2023-04-15T13:18:59;27.10;46.80
21246;DHT22;10781;50.928;4.440;2023-04-15T13:21:25;27.40;48.00
21246;DHT22;10781;50.928;4.440;2023-04-15T13:23:51;28.00;46.00
21246;DHT22;10781;50.928;4.440;2023-04-15T13:26:17;28.60;45.50
21246;DHT22;10781;50.928;4.440;2023-04-15T13:28:43;28.70;44.60
21246;DHT22;10781;50.928;4.440;2023-04-15T13:31:09;28.50;44.90
21246;DHT22;10781;50.928;4.440;2023-04-15T13:33:35;27.90;45.80
21246;DHT22;10781;50.928;4.440;2023-04-15T13:36:01;26.80;45.50
21246;DHT22;10781;50.928;4.440;2023-04-15T13:38:26;27.00;47.20
21246;DHT22;10781;50.928;4.440;2023-04-15T13:40:52;25.30;47.60
21246;DHT22;10781;50.928;4.440;2023-04-15T13:43:17;24.90;46.00
21246;DHT22;10781;50.928;4.440;2023-04-15T13:45:43;24.50;48.00
21246;DHT22;10781;50.928;4.440;2023-04-15T13:48:09;23.50;47.60
21246;DHT22;10781;50.928;4.440;2023-04-15T13:50:35;23.10;48.10
21246;DHT22;10781;50.928;4.440;2023-04-15T13:53:00;22.30;51.80
21246;DHT22;10781;50.928;4.440;2023-04-15T13:55:26;21.90;51.70
21246;DHT22;10781;50.928;4.440;2023-04-15T13:57:52;22.10;52.30
21246;DHT22;10781;50.928;4.440;2023-04-15T14:00:18;22.20;52.80
21246;DHT22;10781;50.928;4.440;2023-04-15T14:02:43;22.90;51.60
21246;DHT22;10781;50.928;4.440;2023-04-15T14:05:10;23.10;53.50
21246;DHT22;10781;50.928;4.440;2023-04-15T14:07:35;24.50;52.20
21246;DHT22;10781;50.928;4.440;2023-04-15T14:10:02;23.90;52.40
21246;DHT22;10781;50.928;4.440;2023-04-15T14:12:28;22.10;53.60
21246;DHT22;10781;50.928;4.440;2023-04-15T14:14:53;21.40;53.60
21246;DHT22;10781;50.928;4.440;2023-04-15T14:17:19;21.20;52.40
21246;DHT22;10781;50.928;4.440;2023-04-15T14:19:45;20.90;55.00
21246;DHT22;10781;50.928;4.440;2023-04-15T14:22:10;21.20;54.70
21246;DHT22;10781;50.928;4.440;2023-04-15T14:24:36;21.70;55.40
21246;DHT22;10781;50.928;4.440;2023-04-15T14:27:02;21.80;51.90
21246;DHT22;10781;50.928;4.440;2023-04-15T14:29:28;22.60;51.40
21246;DHT22;10781;50.928;4.440;2023-04-15T14:31:53;23.50;52.10
21246;DHT22;10781;50.928;4.440;2023-04-15T14:34:21;23.40;51.30
21246;DHT22;10781;50.928;4.440;2023-04-15T14:36:50;22.70;51.20
21246;DHT22;10781;50.928;4.440;2023-04-15T14:39:15;22.20;53.40
21246;DHT22;10781;50.928;4.440;2023-04-15T14:41:41;22.90;53.60
21246;DHT22;10781;50.928;4.440;2023-04-15T14:44:06;22.80;53.30
21246;DHT22;10781;50.928;4.440;2023-04-15T14:46:34;22.10;55.40
21246;DHT22;10781;50.928;4.440;2023-04-15T14:48:59;22.20;56.10
21246;DHT22;10781;50.928;4.440;2023-04-15T14:51:25;22.00;56.40
21246;DHT22;10781;50.928;4.440;2023-04-15T14:53:51;21.60;58.20
21246;DHT22;10781;50.928;4.440;2023-04-15T14:56:16;21.00;59.40
21246;DHT22;10781;50.928;4.440;2023-04-15T14:58:42;21.10;61.20
21246;DHT22;10781;50.928;4.440;2023-04-15T15:01:08;20.70;60.90
21246;DHT22;10781;50.928;4.440;2023-04-15T15:03:34;21.00;61.20
21246;DHT22;10781;50.928;4.440;2023-04-15T15:05:59;21.20;62.00
21246;DHT22;10781;50.928;4.440;2023-04-15T15:08:25;20.60;62.30
21246;DHT22;10781;50.928;4.440;2023-04-15T15:10:51;20.00;64.50
21246;DHT22;10781;50.928;4.440;2023-04-15T15:13:17;19.10;63.90
21246;DHT22;10781;50.928;4.440;2023-04-15T15:15:43;18.40;65.20
21246;DHT22;10781;50.928;4.440;2023-04-15T15:18:09;18.30;66.40
21246;DHT22;10781;50.928;4.440;2023-04-15T15:20:35;18.50;68.00
21246;DHT22;10781;50.928;4.440;2023-04-15T15:23:01;18.20;69.20
21246;DHT22;10781;50.928;4.440;2023-04-15T15:25:27;18.50;69.50
21246;DHT22;10781;50.928;4.440;2023-04-15T15:27:53;19.30;69.60
21246;DHT22;10781;50.928;4.440;2023-04-15T15:30:19;19.80;67.20
21246;DHT22;10781;50.928;4.440;2023-04-15T15:32:45;19.70;66.20
21246;DHT22;10781;50.928;4.440;2023-04-15T15:35:10;19.50;67.50
21246;DHT22;10781;50.928;4.440;2023-04-15T15:37:36;19.40;64.50
21246;DHT22;10781;50.928;4.440;2023-04-15T15:40:06;19.30;67.50
21246;DHT22;10781;50.928;4.440;2023-04-15T15:42:32;20.10;67.80